sensor_id;sensor_type;location;lat;lon;timestamp;P1;durP1;ratioP1;P2;durP2;ratioP2
64199;SDS011;50516;52.272;5.136;2022-09-21T00:00:42;6.20;;;2.92;;
64199;SDS011;50516;52.272;5.136;2022-09-21T00:03:07;6.53;;;2.70;;
64199;SDS011;50516;52.272;5.136;2022-09-21T00:05:33;5.10;;;2.42;;
64199;SDS011;50516;52.272;5.136;2022-09-21T00:07:59;5.95;;;2.60;;
64199;SDS011;50516;52.272;5.136;2022-09-21T00:10:26;7.22;;;3.10;;
64199;SDS011;50516;52.272;5.136;2022-09-21T00:12:52;6.07;;;2.60;;
64199;SDS011;50516;52.272;5.136;2022-09-21T00:15:18;5.57;;;2.90;;
64199;SDS011;50516;52.272;5.136;2022-09-21T00:17:44;5.85;;;2.60;;
64199;SDS011;50516;52.272;5.136;2022-09-21T00:20:12;4.72;;;3.00;;
64199;SDS011;50516;52.272;5.136;2022-09-21T00:22:39;6.10;;;2.92;;
64199;SDS011;50516;52.272;5.136;2022-09-21T00:25:06;6.18;;;3.63;;
64199;SDS011;50516;52.272;5.136;2022-09-21T00:27:32;6.07;;;2.90;;
64199;SDS011;50516;52.272;5.136;2022-09-21T00:29:58;5.35;;;3.05;;
64199;SDS011;50516;52.272;5.136;2022-09-21T00:32:26;7.63;;;3.33;;
64199;SDS011;50516;52.272;5.136;2022-09-21T00:34:52;6.05;;;3.13;;
64199;SDS011;50516;52.272;5.136;2022-09-21T00:37:20;7.18;;;3.25;;
64199;SDS011;50516;52.272;5.136;2022-09-21T00:39:46;6.95;;;2.88;;
64199;SDS011;50516;52.272;5.136;2022-09-21T00:42:32;5.78;;;2.92;;
64199;SDS011;50516;52.272;5.136;2022-09-21T00:44:58;6.45;;;3.13;;
64199;SDS011;50516;52.272;5.136;2022-09-21T00:50:02;4.32;;;3.00;;
64199;SDS011;50516;52.272;5.136;2022-09-21T00:52:33;7.60;;;3.33;;
64199;SDS011;50516;52.272;5.136;2022-09-21T00:55:15;5.32;;;3.08;;
64199;SDS011;50516;52.272;5.136;2022-09-21T00:57:42;8.82;;;3.30;;
64199;SDS011;50516;52.272;5.136;2022-09-21T01:00:10;10.80;;;3.47;;
64199;SDS011;50516;52.272;5.136;2022-09-21T01:02:36;7.28;;;3.67;;
64199;SDS011;50516;52.272;5.136;2022-09-21T01:05:05;5.65;;;3.08;;
64199;SDS011;50516;52.272;5.136;2022-09-21T01:07:42;5.97;;;3.20;;
64199;SDS011;50516;52.272;5.136;2022-09-21T01:10:11;7.28;;;2.80;;
64199;SDS011;50516;52.272;5.136;2022-09-21T01:15:25;6.50;;;3.30;;
64199;SDS011;50516;52.272;5.136;2022-09-21T01:18:02;6.60;;;3.60;;
64199;SDS011;50516;52.272;5.136;2022-09-21T01:31:27;7.38;;;3.17;;
64199;SDS011;50516;52.272;5.136;2022-09-21T01:34:04;7.13;;;3.03;;
64199;SDS011;50516;52.272;5.136;2022-09-21T01:36:36;7.85;;;3.05;;
64199;SDS011;50516;52.272;5.136;2022-09-21T01:39:06;4.70;;;2.85;;
64199;SDS011;50516;52.272;5.136;2022-09-21T01:41:35;5.18;;;2.60;;
64199;SDS011;50516;52.272;5.136;2022-09-21T01:44:07;8.32;;;2.97;;
64199;SDS011;50516;52.272;5.136;2022-09-21T01:46:37;7.55;;;3.33;;
64199;SDS011;50516;52.272;5.136;2022-09-21T01:49:13;5.63;;;2.90;;
64199;SDS011;50516;52.272;5.136;2022-09-21T01:51:44;6.93;;;2.60;;
64199;SDS011;50516;52.272;5.136;2022-09-21T01:54:20;6.88;;;3.70;;
64199;SDS011;50516;52.272;5.136;2022-09-21T01:57:10;3.83;;;2.55;;
64199;SDS011;50516;52.272;5.136;2022-09-21T02:02:13;5.25;;;2.72;;
64199;SDS011;50516;52.272;5.136;2022-09-21T02:04:41;7.05;;;3.08;;
64199;SDS011;50516;52.272;5.136;2022-09-21T02:07:07;3.78;;;2.80;;
64199;SDS011;50516;52.272;5.136;2022-09-21T02:09:33;6.72;;;3.08;;
64199;SDS011;50516;52.272;5.136;2022-09-21T02:12:00;5.30;;;2.83;;
64199;SDS011;50516;52.272;5.136;2022-09-21T02:14:26;4.05;;;2.53;;
64199;SDS011;50516;52.272;5.136;2022-09-21T02:19:48;3.47;;;2.45;;
64199;SDS011;50516;52.272;5.136;2022-09-21T02:22:32;11.43;;;3.67;;
64199;SDS011;50516;52.272;5.136;2022-09-21T02:27:58;4.13;;;2.70;;
64199;SDS011;50516;52.272;5.136;2022-09-21T02:30:30;6.28;;;3.30;;
64199;SDS011;50516;52.272;5.136;2022-09-21T02:38:34;5.50;;;3.10;;
64199;SDS011;50516;52.272;5.136;2022-09-21T02:46:27;4.78;;;2.92;;
64199;SDS011;50516;52.272;5.136;2022-09-21T02:49:05;5.13;;;2.92;;
64199;SDS011;50516;52.272;5.136;2022-09-21T02:51:36;5.80;;;3.15;;
64199;SDS011;50516;52.272;5.136;2022-09-21T02:54:07;4.63;;;2.75;;
64199;SDS011;50516;52.272;5.136;2022-09-21T02:56:37;4.97;;;2.60;;
64199;SDS011;50516;52.272;5.136;2022-09-21T02:59:05;6.95;;;2.90;;
64199;SDS011;50516;52.272;5.136;2022-09-21T03:01:32;7.63;;;2.97;;
64199;SDS011;50516;52.272;5.136;2022-09-21T03:03:58;5.20;;;2.75;;
64199;SDS011;50516;52.272;5.136;2022-09-21T03:06:24;5.80;;;2.60;;
64199;SDS011;50516;52.272;5.136;2022-09-21T03:08:49;5.50;;;3.03;;
64199;SDS011;50516;52.272;5.136;2022-09-21T03:11:15;4.40;;;2.60;;
64199;SDS011;50516;52.272;5.136;2022-09-21T03:13:42;11.38;;;3.30;;
64199;SDS011;50516;52.272;5.136;2022-09-21T03:16:08;7.78;;;3.08;;
64199;SDS011;50516;52.272;5.136;2022-09-21T03:18:34;5.45;;;2.95;;
64199;SDS011;50516;52.272;5.136;2022-09-21T03:20:59;5.88;;;3.03;;
64199;SDS011;50516;52.272;5.136;2022-09-21T03:23:26;7.80;;;2.92;;
64199;SDS011;50516;52.272;5.136;2022-09-21T03:25:51;6.50;;;3.08;;
64199;SDS011;50516;52.272;5.136;2022-09-21T03:28:17;9.40;;;3.00;;
64199;SDS011;50516;52.272;5.136;2022-09-21T03:30:42;8.07;;;2.97;;
64199;SDS011;50516;52.272;5.136;2022-09-21T03:33:08;9.82;;;3.15;;
64199;SDS011;50516;52.272;5.136;2022-09-21T03:35:34;4.65;;;2.80;;
64199;SDS011;50516;52.272;5.136;2022-09-21T03:38:00;5.30;;;2.80;;
64199;SDS011;50516;52.272;5.136;2022-09-21T03:40:26;11.13;;;2.90;;
64199;SDS011;50516;52.272;5.136;2022-09-21T03:42:51;8.30;;;3.03;;
64199;SDS011;50516;52.272;5.136;2022-09-21T03:45:18;4.22;;;2.55;;
64199;SDS011;50516;52.272;5.136;2022-09-21T03:47:46;4.22;;;2.90;;
64199;SDS011;50516;52.272;5.136;2022-09-21T03:50:12;7.57;;;2.83;;
64199;SDS011;50516;52.272;5.136;2022-09-21T03:52:38;6.53;;;3.30;;
64199;SDS011;50516;52.272;5.136;2022-09-21T03:55:03;7.57;;;3.00;;
64199;SDS011;50516;52.272;5.136;2022-09-21T03:57:31;7.50;;;3.08;;
64199;SDS011;50516;52.272;5.136;2022-09-21T03:59:56;3.67;;;2.40;;
64199;SDS011;50516;52.272;5.136;2022-09-21T04:02:22;5.00;;;3.28;;
64199;SDS011;50516;52.272;5.136;2022-09-21T04:04:47;9.55;;;3.03;;
64199;SDS011;50516;52.272;5.136;2022-09-21T04:07:12;6.60;;;3.10;;
64199;SDS011;50516;52.272;5.136;2022-09-21T04:09:39;5.65;;;2.70;;
64199;SDS011;50516;52.272;5.136;2022-09-21T04:12:04;6.63;;;2.90;;
64199;SDS011;50516;52.272;5.136;2022-09-21T04:14:29;6.38;;;2.75;;
64199;SDS011;50516;52.272;5.136;2022-09-21T04:16:55;8.75;;;3.60;;
64199;SDS011;50516;52.272;5.136;2022-09-21T04:19:21;5.55;;;2.58;;
64199;SDS011;50516;52.272;5.136;2022-09-21T04:21:47;5.57;;;2.55;;
64199;SDS011;50516;52.272;5.136;2022-09-21T04:24:15;5.70;;;2.55;;
64199;SDS011;50516;52.272;5.136;2022-09-21T04:26:43;7.78;;;3.10;;
64199;SDS011;50516;52.272;5.136;2022-09-21T04:29:10;9.00;;;2.78;;
64199;SDS011;50516;52.272;5.136;2022-09-21T04:31:37;7.30;;;2.70;;
64199;SDS011;50516;52.272;5.136;2022-09-21T04:34:02;13.55;;;3.38;;
64199;SDS011;50516;52.272;5.136;2022-09-21T04:36:28;4.50;;;2.70;;
64199;SDS011;50516;52.272;5.136;2022-09-21T04:38:53;6.78;;;2.53;;
64199;SDS011;50516;52.272;5.136;2022-09-21T04:41:19;7.88;;;2.60;;
64199;SDS011;50516;52.272;5.136;2022-09-21T04:43:45;4.95;;;2.70;;
64199;SDS011;50516;52.272;5.136;2022-09-21T04:46:12;5.68;;;2.65;;
64199;SDS011;50516;52.272;5.136;2022-09-21T04:48:39;7.03;;;2.70;;
64199;SDS011;50516;52.272;5.136;2022-09-21T04:51:06;3.53;;;2.88;;
64199;SDS011;50516;52.272;5.136;2022-09-21T04:53:35;5.88;;;2.65;;
64199;SDS011;50516;52.272;5.136;2022-09-21T04:56:03;7.97;;;2.72;;
64199;SDS011;50516;52.272;5.136;2022-09-21T04:58:30;8.07;;;2.80;;
64199;SDS011;50516;52.272;5.136;2022-09-21T05:00:55;8.40;;;2.60;;
64199;SDS011;50516;52.272;5.136;2022-09-21T05:03:21;5.60;;;3.20;;
64199;SDS011;50516;52.272;5.136;2022-09-21T05:05:49;5.07;;;2.65;;
64199;SDS011;50516;52.272;5.136;2022-09-21T05:08:18;7.32;;;2.90;;
64199;SDS011;50516;52.272;5.136;2022-09-21T05:11:08;4.72;;;2.75;;
64199;SDS011;50516;52.272;5.136;2022-09-21T05:13:43;6.45;;;2.97;;
64199;SDS011;50516;52.272;5.136;2022-09-21T05:16:09;3.40;;;2.58;;
64199;SDS011;50516;52.272;5.136;2022-09-21T05:18:34;4.82;;;2.40;;
64199;SDS011;50516;52.272;5.136;2022-09-21T05:21:00;13.75;;;3.17;;
64199;SDS011;50516;52.272;5.136;2022-09-21T05:23:26;5.53;;;3.20;;
64199;SDS011;50516;52.272;5.136;2022-09-21T05:25:53;5.07;;;2.75;;
64199;SDS011;50516;52.272;5.136;2022-09-21T05:28:19;4.90;;;2.85;;
64199;SDS011;50516;52.272;5.136;2022-09-21T05:30:45;9.23;;;2.80;;
64199;SDS011;50516;52.272;5.136;2022-09-21T05:33:18;4.32;;;2.75;;
64199;SDS011;50516;52.272;5.136;2022-09-21T05:35:55;4.10;;;2.70;;
64199;SDS011;50516;52.272;5.136;2022-09-21T05:38:29;8.20;;;2.88;;
64199;SDS011;50516;52.272;5.136;2022-09-21T05:40:54;5.68;;;2.35;;
64199;SDS011;50516;52.272;5.136;2022-09-21T05:43:20;7.80;;;3.47;;
64199;SDS011;50516;52.272;5.136;2022-09-21T05:45:47;6.20;;;2.60;;
64199;SDS011;50516;52.272;5.136;2022-09-21T05:48:18;6.68;;;2.53;;
64199;SDS011;50516;52.272;5.136;2022-09-21T05:51:00;5.38;;;3.03;;
64199;SDS011;50516;52.272;5.136;2022-09-21T05:53:40;6.65;;;3.03;;
64199;SDS011;50516;52.272;5.136;2022-09-21T05:56:12;6.95;;;3.00;;
64199;SDS011;50516;52.272;5.136;2022-09-21T06:04:10;6.40;;;2.70;;
64199;SDS011;50516;52.272;5.136;2022-09-21T06:06:37;6.60;;;2.67;;
64199;SDS011;50516;52.272;5.136;2022-09-21T06:09:02;5.40;;;2.88;;
64199;SDS011;50516;52.272;5.136;2022-09-21T06:11:28;4.38;;;2.72;;
64199;SDS011;50516;52.272;5.136;2022-09-21T06:13:53;6.78;;;2.65;;
64199;SDS011;50516;52.272;5.136;2022-09-21T06:16:19;4.28;;;2.72;;
64199;SDS011;50516;52.272;5.136;2022-09-21T06:18:44;4.80;;;2.75;;
64199;SDS011;50516;52.272;5.136;2022-09-21T06:21:09;5.78;;;2.72;;
64199;SDS011;50516;52.272;5.136;2022-09-21T06:23:35;7.00;;;3.58;;
64199;SDS011;50516;52.272;5.136;2022-09-21T06:26:01;6.43;;;3.10;;
64199;SDS011;50516;52.272;5.136;2022-09-21T06:28:26;8.02;;;3.03;;
64199;SDS011;50516;52.272;5.136;2022-09-21T06:30:52;4.93;;;2.65;;
64199;SDS011;50516;52.272;5.136;2022-09-21T06:33:19;9.40;;;3.88;;
64199;SDS011;50516;52.272;5.136;2022-09-21T06:35:57;5.32;;;3.55;;
64199;SDS011;50516;52.272;5.136;2022-09-21T06:38:24;8.63;;;3.47;;
64199;SDS011;50516;52.272;5.136;2022-09-21T06:40:51;11.10;;;4.47;;
64199;SDS011;50516;52.272;5.136;2022-09-21T06:43:17;6.40;;;3.08;;
64199;SDS011;50516;52.272;5.136;2022-09-21T06:45:43;8.02;;;3.72;;
64199;SDS011;50516;52.272;5.136;2022-09-21T06:48:16;9.52;;;3.83;;
64199;SDS011;50516;52.272;5.136;2022-09-21T06:50:41;8.98;;;3.10;;
64199;SDS011;50516;52.272;5.136;2022-09-21T06:53:06;13.32;;;4.40;;
64199;SDS011;50516;52.272;5.136;2022-09-21T06:55:32;6.15;;;3.22;;
64199;SDS011;50516;52.272;5.136;2022-09-21T06:57:59;11.23;;;3.60;;
64199;SDS011;50516;52.272;5.136;2022-09-21T07:00:25;10.77;;;3.65;;
64199;SDS011;50516;52.272;5.136;2022-09-21T07:02:51;9.35;;;3.92;;
64199;SDS011;50516;52.272;5.136;2022-09-21T07:05:16;13.13;;;3.70;;
64199;SDS011;50516;52.272;5.136;2022-09-21T07:07:42;10.65;;;3.50;;
64199;SDS011;50516;52.272;5.136;2022-09-21T07:10:07;11.60;;;3.33;;
64199;SDS011;50516;52.272;5.136;2022-09-21T07:12:33;6.72;;;3.10;;
64199;SDS011;50516;52.272;5.136;2022-09-21T07:15:00;7.70;;;3.15;;
64199;SDS011;50516;52.272;5.136;2022-09-21T07:17:30;10.38;;;3.22;;
64199;SDS011;50516;52.272;5.136;2022-09-21T07:19:56;9.63;;;3.55;;
64199;SDS011;50516;52.272;5.136;2022-09-21T07:22:22;6.93;;;2.97;;
64199;SDS011;50516;52.272;5.136;2022-09-21T07:24:48;8.90;;;2.83;;
64199;SDS011;50516;52.272;5.136;2022-09-21T07:27:13;9.38;;;3.25;;
64199;SDS011;50516;52.272;5.136;2022-09-21T07:29:39;6.93;;;2.85;;
64199;SDS011;50516;52.272;5.136;2022-09-21T07:32:04;8.88;;;2.50;;
64199;SDS011;50516;52.272;5.136;2022-09-21T07:34:33;8.48;;;3.28;;
64199;SDS011;50516;52.272;5.136;2022-09-21T07:36:59;7.82;;;3.00;;
64199;SDS011;50516;52.272;5.136;2022-09-21T07:39:24;10.32;;;2.60;;
64199;SDS011;50516;52.272;5.136;2022-09-21T07:41:49;7.20;;;2.33;;
64199;SDS011;50516;52.272;5.136;2022-09-21T07:44:15;8.93;;;2.40;;
64199;SDS011;50516;52.272;5.136;2022-09-21T07:46:40;12.38;;;2.65;;
64199;SDS011;50516;52.272;5.136;2022-09-21T07:49:06;6.88;;;2.88;;
64199;SDS011;50516;52.272;5.136;2022-09-21T07:51:31;7.60;;;2.38;;
64199;SDS011;50516;52.272;5.136;2022-09-21T07:53:57;6.25;;;2.47;;
64199;SDS011;50516;52.272;5.136;2022-09-21T07:56:22;7.63;;;2.58;;
64199;SDS011;50516;52.272;5.136;2022-09-21T07:58:48;8.35;;;2.63;;
64199;SDS011;50516;52.272;5.136;2022-09-21T08:01:32;6.90;;;2.50;;
64199;SDS011;50516;52.272;5.136;2022-09-21T08:03:59;8.88;;;2.53;;
64199;SDS011;50516;52.272;5.136;2022-09-21T08:06:26;10.25;;;2.67;;
64199;SDS011;50516;52.272;5.136;2022-09-21T08:08:54;9.32;;;2.47;;
64199;SDS011;50516;52.272;5.136;2022-09-21T08:11:20;6.85;;;2.30;;
64199;SDS011;50516;52.272;5.136;2022-09-21T08:13:47;10.35;;;2.75;;
64199;SDS011;50516;52.272;5.136;2022-09-21T08:16:16;7.93;;;2.40;;
64199;SDS011;50516;52.272;5.136;2022-09-21T08:18:41;8.23;;;2.22;;
64199;SDS011;50516;52.272;5.136;2022-09-21T08:21:07;7.55;;;2.10;;
64199;SDS011;50516;52.272;5.136;2022-09-21T08:23:34;11.15;;;2.25;;
64199;SDS011;50516;52.272;5.136;2022-09-21T08:26:04;7.15;;;2.42;;
64199;SDS011;50516;52.272;5.136;2022-09-21T08:28:31;9.32;;;2.53;;
64199;SDS011;50516;52.272;5.136;2022-09-21T08:31:00;5.65;;;1.98;;
64199;SDS011;50516;52.272;5.136;2022-09-21T08:33:30;7.22;;;2.05;;
64199;SDS011;50516;52.272;5.136;2022-09-21T08:35:57;7.95;;;2.08;;
64199;SDS011;50516;52.272;5.136;2022-09-21T08:38:23;7.97;;;2.28;;
64199;SDS011;50516;52.272;5.136;2022-09-21T08:40:49;8.95;;;2.35;;
64199;SDS011;50516;52.272;5.136;2022-09-21T08:43:35;13.25;;;2.80;;
64199;SDS011;50516;52.272;5.136;2022-09-21T08:46:11;11.18;;;2.85;;
64199;SDS011;50516;52.272;5.136;2022-09-21T08:48:45;5.30;;;1.80;;
64199;SDS011;50516;52.272;5.136;2022-09-21T08:51:35;9.98;;;2.75;;
64199;SDS011;50516;52.272;5.136;2022-09-21T08:54:12;10.55;;;2.05;;
64199;SDS011;50516;52.272;5.136;2022-09-21T08:56:42;12.10;;;2.20;;
64199;SDS011;50516;52.272;5.136;2022-09-21T08:59:10;8.80;;;2.85;;
64199;SDS011;50516;52.272;5.136;2022-09-21T09:12:19;9.18;;;2.35;;
64199;SDS011;50516;52.272;5.136;2022-09-21T09:14:52;10.50;;;2.40;;
64199;SDS011;50516;52.272;5.136;2022-09-21T09:20:39;5.88;;;2.25;;
64199;SDS011;50516;52.272;5.136;2022-09-21T09:25:38;6.35;;;2.38;;
64199;SDS011;50516;52.272;5.136;2022-09-21T09:31:02;5.65;;;1.83;;
64199;SDS011;50516;52.272;5.136;2022-09-21T09:33:42;4.18;;;1.77;;
64199;SDS011;50516;52.272;5.136;2022-09-21T09:36:09;8.00;;;2.20;;
64199;SDS011;50516;52.272;5.136;2022-09-21T09:38:39;7.05;;;2.28;;
64199;SDS011;50516;52.272;5.136;2022-09-21T09:49:28;12.38;;;2.20;;
64199;SDS011;50516;52.272;5.136;2022-09-21T09:52:15;6.47;;;1.67;;
64199;SDS011;50516;52.272;5.136;2022-09-21T09:54:41;4.18;;;1.77;;
64199;SDS011;50516;52.272;5.136;2022-09-21T09:57:06;12.23;;;2.25;;
64199;SDS011;50516;52.272;5.136;2022-09-21T10:02:18;5.43;;;2.08;;
64199;SDS011;50516;52.272;5.136;2022-09-21T10:04:53;5.38;;;1.88;;
64199;SDS011;50516;52.272;5.136;2022-09-21T10:07:32;7.70;;;2.00;;
64199;SDS011;50516;52.272;5.136;2022-09-21T10:09:58;6.10;;;1.63;;
64199;SDS011;50516;52.272;5.136;2022-09-21T10:12:24;6.05;;;1.70;;
64199;SDS011;50516;52.272;5.136;2022-09-21T10:14:51;6.63;;;1.80;;
64199;SDS011;50516;52.272;5.136;2022-09-21T10:17:20;5.18;;;1.95;;
64199;SDS011;50516;52.272;5.136;2022-09-21T10:19:57;9.07;;;2.20;;
64199;SDS011;50516;52.272;5.136;2022-09-21T10:22:27;11.25;;;2.38;;
64199;SDS011;50516;52.272;5.136;2022-09-21T10:24:54;7.00;;;1.92;;
64199;SDS011;50516;52.272;5.136;2022-09-21T10:27:26;7.38;;;2.03;;
64199;SDS011;50516;52.272;5.136;2022-09-21T10:29:55;5.38;;;1.83;;
64199;SDS011;50516;52.272;5.136;2022-09-21T10:32:24;4.25;;;1.52;;
64199;SDS011;50516;52.272;5.136;2022-09-21T10:37:30;13.70;;;2.53;;
64199;SDS011;50516;52.272;5.136;2022-09-21T10:40:02;8.70;;;2.22;;
64199;SDS011;50516;52.272;5.136;2022-09-21T10:42:33;10.55;;;3.28;;
64199;SDS011;50516;52.272;5.136;2022-09-21T10:45:12;7.47;;;2.65;;
64199;SDS011;50516;52.272;5.136;2022-09-21T10:50:44;8.80;;;2.30;;
64199;SDS011;50516;52.272;5.136;2022-09-21T10:56:07;7.25;;;1.83;;
64199;SDS011;50516;52.272;5.136;2022-09-21T11:01:49;7.03;;;1.95;;
64199;SDS011;50516;52.272;5.136;2022-09-21T11:06:45;7.38;;;2.33;;
64199;SDS011;50516;52.272;5.136;2022-09-21T11:17:40;5.70;;;2.00;;
64199;SDS011;50516;52.272;5.136;2022-09-21T11:20:13;3.75;;;1.85;;
64199;SDS011;50516;52.272;5.136;2022-09-21T11:22:55;7.85;;;2.05;;
64199;SDS011;50516;52.272;5.136;2022-09-21T11:28:01;4.97;;;2.00;;
64199;SDS011;50516;52.272;5.136;2022-09-21T11:30:40;4.90;;;2.13;;
64199;SDS011;50516;52.272;5.136;2022-09-21T11:35:45;7.82;;;2.00;;
64199;SDS011;50516;52.272;5.136;2022-09-21T11:38:23;6.47;;;2.33;;
64199;SDS011;50516;52.272;5.136;2022-09-21T11:41:19;7.40;;;1.90;;
64199;SDS011;50516;52.272;5.136;2022-09-21T11:44:09;6.30;;;2.15;;
64199;SDS011;50516;52.272;5.136;2022-09-21T11:46:45;8.93;;;2.13;;
64199;SDS011;50516;52.272;5.136;2022-09-21T11:52:17;3.80;;;2.03;;
64199;SDS011;50516;52.272;5.136;2022-09-21T12:00:29;7.82;;;1.73;;
64199;SDS011;50516;52.272;5.136;2022-09-21T12:11:31;5.97;;;1.73;;
64199;SDS011;50516;52.272;5.136;2022-09-21T12:30:29;3.80;;;1.70;;
64199;SDS011;50516;52.272;5.136;2022-09-21T12:33:04;4.80;;;1.50;;
64199;SDS011;50516;52.272;5.136;2022-09-21T12:38:39;3.60;;;1.50;;
64199;SDS011;50516;52.272;5.136;2022-09-21T12:41:21;7.75;;;1.98;;
64199;SDS011;50516;52.272;5.136;2022-09-21T12:46:31;9.90;;;2.92;;
64199;SDS011;50516;52.272;5.136;2022-09-21T12:49:00;7.57;;;2.40;;
64199;SDS011;50516;52.272;5.136;2022-09-21T12:51:40;5.97;;;1.40;;
64199;SDS011;50516;52.272;5.136;2022-09-21T12:54:23;5.13;;;1.65;;
64199;SDS011;50516;52.272;5.136;2022-09-21T12:57:04;5.15;;;1.73;;
64199;SDS011;50516;52.272;5.136;2022-09-21T12:59:38;5.22;;;1.70;;
64199;SDS011;50516;52.272;5.136;2022-09-21T13:05:13;3.13;;;1.77;;
64199;SDS011;50516;52.272;5.136;2022-09-21T13:07:47;7.13;;;1.77;;
64199;SDS011;50516;52.272;5.136;2022-09-21T13:10:19;5.75;;;2.00;;
64199;SDS011;50516;52.272;5.136;2022-09-21T13:13:00;6.38;;;1.80;;
64199;SDS011;50516;52.272;5.136;2022-09-21T13:15:32;3.03;;;1.25;;
64199;SDS011;50516;52.272;5.136;2022-09-21T13:18:17;5.45;;;1.70;;
64199;SDS011;50516;52.272;5.136;2022-09-21T13:20:45;6.45;;;1.92;;
64199;SDS011;50516;52.272;5.136;2022-09-21T13:23:13;7.63;;;1.80;;
64199;SDS011;50516;52.272;5.136;2022-09-21T13:25:45;7.63;;;3.22;;
64199;SDS011;50516;52.272;5.136;2022-09-21T13:41:34;6.43;;;1.83;;
64199;SDS011;50516;52.272;5.136;2022-09-21T13:43:45;4.65;;;1.80;;
64199;SDS011;50516;52.272;5.136;2022-09-21T13:51:55;5.25;;;1.58;;
64199;SDS011;50516;52.272;5.136;2022-09-21T13:54:28;3.63;;;1.70;;
64199;SDS011;50516;52.272;5.136;2022-09-21T13:57:02;3.40;;;1.38;;
64199;SDS011;50516;52.272;5.136;2022-09-21T13:59:30;5.25;;;1.70;;
64199;SDS011;50516;52.272;5.136;2022-09-21T14:01:58;4.20;;;1.42;;
64199;SDS011;50516;52.272;5.136;2022-09-21T14:06:52;5.75;;;1.55;;
64199;SDS011;50516;52.272;5.136;2022-09-21T14:09:20;3.58;;;1.38;;
64199;SDS011;50516;52.272;5.136;2022-09-21T14:11:51;6.50;;;1.55;;
64199;SDS011;50516;52.272;5.136;2022-09-21T14:14:23;3.42;;;1.50;;
64199;SDS011;50516;52.272;5.136;2022-09-21T14:27:14;6.25;;;1.85;;
64199;SDS011;50516;52.272;5.136;2022-09-21T14:32:40;5.22;;;1.80;;
64199;SDS011;50516;52.272;5.136;2022-09-21T14:35:14;4.53;;;1.52;;
64199;SDS011;50516;52.272;5.136;2022-09-21T14:37:56;5.00;;;1.30;;
64199;SDS011;50516;52.272;5.136;2022-09-21T14:40:29;5.93;;;1.67;;
64199;SDS011;50516;52.272;5.136;2022-09-21T14:43:00;5.88;;;2.38;;
64199;SDS011;50516;52.272;5.136;2022-09-21T14:59:34;4.05;;;1.60;;
64199;SDS011;50516;52.272;5.136;2022-09-21T15:02:11;4.93;;;1.48;;
64199;SDS011;50516;52.272;5.136;2022-09-21T15:07:21;5.35;;;1.42;;
64199;SDS011;50516;52.272;5.136;2022-09-21T15:10:22;7.05;;;1.83;;
64199;SDS011;50516;52.272;5.136;2022-09-21T15:18:32;2.72;;;1.30;;
64199;SDS011;50516;52.272;5.136;2022-09-21T15:21:16;2.53;;;1.13;;
64199;SDS011;50516;52.272;5.136;2022-09-21T15:23:46;6.95;;;2.00;;
64199;SDS011;50516;52.272;5.136;2022-09-21T15:26:12;4.35;;;1.77;;
64199;SDS011;50516;52.272;5.136;2022-09-21T15:28:46;7.20;;;2.15;;
64199;SDS011;50516;52.272;5.136;2022-09-21T15:31:15;5.05;;;1.25;;
64199;SDS011;50516;52.272;5.136;2022-09-21T15:33:42;4.75;;;1.58;;
64199;SDS011;50516;52.272;5.136;2022-09-21T15:36:12;5.60;;;1.92;;
64199;SDS011;50516;52.272;5.136;2022-09-21T15:38:46;7.18;;;2.58;;
64199;SDS011;50516;52.272;5.136;2022-09-21T15:41:17;6.03;;;3.20;;
64199;SDS011;50516;52.272;5.136;2022-09-21T15:44:22;5.43;;;2.13;;
64199;SDS011;50516;52.272;5.136;2022-09-21T15:46:52;4.47;;;1.67;;
64199;SDS011;50516;52.272;5.136;2022-09-21T15:49:24;6.65;;;1.95;;
64199;SDS011;50516;52.272;5.136;2022-09-21T15:54:34;2.80;;;1.58;;
64199;SDS011;50516;52.272;5.136;2022-09-21T15:57:04;5.05;;;1.70;;
64199;SDS011;50516;52.272;5.136;2022-09-21T15:59:46;3.38;;;1.38;;
64199;SDS011;50516;52.272;5.136;2022-09-21T16:02:15;5.28;;;1.83;;
64199;SDS011;50516;52.272;5.136;2022-09-21T16:04:45;7.40;;;2.03;;
64199;SDS011;50516;52.272;5.136;2022-09-21T16:07:29;5.13;;;1.77;;
64199;SDS011;50516;52.272;5.136;2022-09-21T16:09:55;2.97;;;1.52;;
64199;SDS011;50516;52.272;5.136;2022-09-21T16:15:24;4.68;;;1.55;;
64199;SDS011;50516;52.272;5.136;2022-09-21T16:18:02;4.85;;;1.58;;
64199;SDS011;50516;52.272;5.136;2022-09-21T16:20:37;3.40;;;1.60;;
64199;SDS011;50516;52.272;5.136;2022-09-21T16:23:09;4.13;;;1.70;;
64199;SDS011;50516;52.272;5.136;2022-09-21T16:25:37;7.30;;;2.33;;
64199;SDS011;50516;52.272;5.136;2022-09-21T16:28:04;13.70;;;6.95;;
64199;SDS011;50516;52.272;5.136;2022-09-21T16:30:50;16.08;;;7.35;;
64199;SDS011;50516;52.272;5.136;2022-09-21T16:38:56;23.45;;;9.82;;
64199;SDS011;50516;52.272;5.136;2022-09-21T16:41:23;20.95;;;9.55;;
64199;SDS011;50516;52.272;5.136;2022-09-21T16:43:59;20.23;;;8.32;;
64199;SDS011;50516;52.272;5.136;2022-09-21T16:46:25;16.33;;;9.05;;
64199;SDS011;50516;52.272;5.136;2022-09-21T16:48:51;14.95;;;6.40;;
64199;SDS011;50516;52.272;5.136;2022-09-21T16:51:19;15.50;;;7.53;;
64199;SDS011;50516;52.272;5.136;2022-09-21T16:53:48;6.85;;;3.95;;
64199;SDS011;50516;52.272;5.136;2022-09-21T16:56:15;8.68;;;3.40;;
64199;SDS011;50516;52.272;5.136;2022-09-21T16:58:41;10.00;;;3.78;;
64199;SDS011;50516;52.272;5.136;2022-09-21T17:01:10;15.05;;;5.20;;
64199;SDS011;50516;52.272;5.136;2022-09-21T17:03:40;7.72;;;2.35;;
64199;SDS011;50516;52.272;5.136;2022-09-21T17:08:41;7.25;;;2.83;;
64199;SDS011;50516;52.272;5.136;2022-09-21T17:11:07;8.50;;;3.53;;
64199;SDS011;50516;52.272;5.136;2022-09-21T17:13:32;8.15;;;3.63;;
64199;SDS011;50516;52.272;5.136;2022-09-21T17:15:58;7.97;;;3.38;;
64199;SDS011;50516;52.272;5.136;2022-09-21T17:18:23;4.38;;;2.67;;
64199;SDS011;50516;52.272;5.136;2022-09-21T17:20:49;8.25;;;3.70;;
64199;SDS011;50516;52.272;5.136;2022-09-21T17:23:14;6.90;;;2.97;;
64199;SDS011;50516;52.272;5.136;2022-09-21T17:25:40;5.18;;;3.30;;
64199;SDS011;50516;52.272;5.136;2022-09-21T17:28:13;5.25;;;3.28;;
64199;SDS011;50516;52.272;5.136;2022-09-21T17:30:49;8.63;;;3.40;;
64199;SDS011;50516;52.272;5.136;2022-09-21T17:33:15;9.52;;;3.45;;
64199;SDS011;50516;52.272;5.136;2022-09-21T17:35:41;6.00;;;2.97;;
64199;SDS011;50516;52.272;5.136;2022-09-21T17:38:07;7.22;;;3.15;;
64199;SDS011;50516;52.272;5.136;2022-09-21T17:40:33;4.35;;;2.90;;
64199;SDS011;50516;52.272;5.136;2022-09-21T17:45:41;7.20;;;3.20;;
64199;SDS011;50516;52.272;5.136;2022-09-21T17:48:18;7.22;;;2.95;;
64199;SDS011;50516;52.272;5.136;2022-09-21T17:50:44;6.47;;;2.83;;
64199;SDS011;50516;52.272;5.136;2022-09-21T17:53:10;8.88;;;2.97;;
64199;SDS011;50516;52.272;5.136;2022-09-21T17:56:00;7.28;;;3.42;;
64199;SDS011;50516;52.272;5.136;2022-09-21T17:59:15;7.40;;;3.22;;
64199;SDS011;50516;52.272;5.136;2022-09-21T18:01:46;6.82;;;2.88;;
64199;SDS011;50516;52.272;5.136;2022-09-21T18:04:12;6.38;;;2.78;;
64199;SDS011;50516;52.272;5.136;2022-09-21T18:06:37;5.50;;;2.70;;
64199;SDS011;50516;52.272;5.136;2022-09-21T18:09:03;7.18;;;3.10;;
64199;SDS011;50516;52.272;5.136;2022-09-21T18:20:05;5.55;;;2.92;;
64199;SDS011;50516;52.272;5.136;2022-09-21T18:25:44;7.75;;;2.97;;
64199;SDS011;50516;52.272;5.136;2022-09-21T18:28:15;5.25;;;2.83;;
64199;SDS011;50516;52.272;5.136;2022-09-21T18:30:49;6.18;;;3.03;;
64199;SDS011;50516;52.272;5.136;2022-09-21T18:33:43;4.93;;;2.75;;
64199;SDS011;50516;52.272;5.136;2022-09-21T18:36:24;6.95;;;2.63;;
64199;SDS011;50516;52.272;5.136;2022-09-21T18:44:59;5.95;;;3.25;;
64199;SDS011;50516;52.272;5.136;2022-09-21T18:50:37;5.43;;;3.30;;
64199;SDS011;50516;52.272;5.136;2022-09-21T18:53:23;8.75;;;3.55;;
64199;SDS011;50516;52.272;5.136;2022-09-21T18:55:57;5.90;;;3.22;;
64199;SDS011;50516;52.272;5.136;2022-09-21T18:58:24;5.32;;;2.97;;